Time;durP1;ratioP1;P1;durP2;ratioP2;P2;SDS_P1;SDS_P2;PMS_P1;PMS_P2;Temp;Humidity;BMP_temperature;BMP_pressure;BME280_temperature;BME280_humidity;BME280_pressure;Samples;Min_cycle;Max_cycle;Signal;HPM_P1;HPM_P2
2023/01/26 00:01:36;;;;;;;26.15;12.82;;;4.50;66.10;;;-0.82;97.39;95883.94;5004412;28;20068;-47
2023/01/26 00:04:11;;;;;;;25.40;13.20;;;4.40;66.00;;;-0.78;97.35;95874.75;4985107;28;20350;-48
2023/01/26 00:06:37;;;;;;;22.55;12.13;;;4.40;66.10;;;-0.80;97.23;95872.31;4989183;28;20029;-47
2023/01/26 00:09:11;;;;;;;27.75;13.48;;;4.40;66.20;;;-0.80;97.47;95876.75;4989043;28;20037;-48
2023/01/26 00:11:40;;;;;;;25.00;11.90;;;4.40;66.20;;;-0.78;97.20;95877.38;4984537;28;20030;-47
2023/01/26 00:14:06;;;;;;;22.95;12.88;;;4.40;66.20;;;-0.78;97.09;95862.47;5007435;28;20021;-48
2023/01/26 00:16:35;;;;;;;24.15;12.52;;;4.40;66.20;;;-0.75;97.08;95874.38;4990344;28;20040;-48
2023/01/26 00:19:02;;;;;;;26.40;13.07;;;4.40;66.20;;;-0.91;97.35;95872.78;4992597;28;20427;-51
2023/01/26 00:21:31;;;;;;;27.27;14.43;;;4.40;66.10;;;-0.92;97.25;95865.94;4973813;28;20381;-52
2023/01/26 00:24:03;;;;;;;26.42;13.60;;;4.40;66.10;;;-0.93;97.58;95859.91;4992500;28;20022;-49
2023/01/26 00:26:32;;;;;;;26.27;13.60;;;4.40;66.10;;;-0.96;97.78;95860.28;4992559;28;20029;-49
2023/01/26 00:29:00;;;;;;;24.83;13.90;;;4.40;66.10;;;-1.00;98.40;95858.25;4983148;28;20030;-50
2023/01/26 00:31:29;;;;;;;30.25;13.77;;;4.40;66.10;;;-1.00;98.46;95859.03;4992271;28;20022;-51
2023/01/26 00:33:56;;;;;;;23.33;13.18;;;4.40;66.10;;;-0.96;97.90;95859.47;4981877;28;20041;-48
2023/01/26 00:36:22;;;;;;;23.33;12.32;;;4.30;66.10;;;-1.03;97.32;95853.38;4987311;28;20044;-49
2023/01/26 00:38:48;;;;;;;22.40;11.75;;;4.40;66.10;;;-1.06;97.65;95864.22;4991146;28;20029;-49
2023/01/26 00:44:01;;;;;;;30.92;14.07;;;4.30;66.10;;;-0.96;97.45;95862.09;4991915;28;20056;-47
2023/01/26 00:46:28;;;;;;;22.80;12.68;;;4.30;66.20;;;-0.94;96.95;95860.09;4989675;28;20524;-49
2023/01/26 00:48:54;;;;;;;25.67;13.77;;;4.30;66.20;;;-0.96;96.63;95857.66;4992182;28;20443;-48
2023/01/26 00:51:19;;;;;;;26.50;14.35;;;4.30;66.20;;;-0.93;96.64;95864.34;4989437;28;20056;-47
2023/01/26 00:53:48;;;;;;;26.15;13.77;;;4.30;66.20;;;-0.96;96.93;95865.50;4992225;28;20025;-50
2023/01/26 00:56:16;;;;;;;26.35;13.98;;;4.30;66.20;;;-0.98;97.36;95858.84;4990819;28;20045;-47
2023/01/26 00:58:50;;;;;;;26.52;14.25;;;4.30;66.10;;;-1.01;97.51;95857.41;4988774;28;20036;-51
2023/01/26 01:01:16;;;;;;;27.27;13.70;;;4.30;66.10;;;-1.01;97.66;95851.38;4975179;28;20025;-47
2023/01/26 01:03:51;;;;;;;25.95;13.13;;;4.30;66.10;;;-1.00;97.96;95853.00;4989915;28;20033;-52
2023/01/26 01:06:19;;;;;;;26.05;14.00;;;4.30;66.10;;;-1.02;99.01;95850.56;4980092;28;20092;-47
2023/01/26 01:08:48;;;;;;;25.92;13.65;;;4.30;66.20;;;-0.96;98.74;95854.25;4974222;28;20045;-53
2023/01/26 01:11:14;;;;;;;27.48;14.10;;;4.40;66.30;;;-0.89;98.37;95854.31;4999933;28;20464;-47
2023/01/26 01:13:40;;;;;;;28.48;13.30;;;4.30;66.20;;;-0.90;98.05;95853.50;4988090;28;20152;-52
2023/01/26 01:16:10;;;;;;;26.98;14.60;;;4.40;66.30;;;-0.85;97.98;95845.09;4990775;28;20108;-47
2023/01/26 01:18:39;;;;;;;26.67;14.23;;;4.40;66.20;;;-0.82;97.61;95848.13;4990312;28;20083;-48
2023/01/26 01:21:17;;;;;;;31.10;15.32;;;4.40;66.20;;;-0.82;97.98;95842.91;4957170;28;20028;-47
2023/01/26 01:23:48;;;;;;;28.77;14.90;;;4.40;66.10;;;-0.80;98.16;95848.75;4991108;28;20491;-49
2023/01/26 01:26:16;;;;;;;29.73;15.07;;;4.50;66.20;;;-0.78;97.83;95843.38;4982876;28;20453;-47
2023/01/26 01:28:45;;;;;;;28.67;15.25;;;4.50;66.20;;;-0.82;98.03;95852.56;4983792;28;20029;-48
2023/01/26 01:31:15;;;;;;;30.33;15.20;;;4.50;66.10;;;-0.80;97.64;95842.72;5006530;28;20029;-51
2023/01/26 01:33:42;;;;;;;29.73;15.40;;;4.50;66.00;;;-0.86;97.67;95840.84;4988606;28;20100;-49
2023/01/26 01:36:14;;;;;;;30.77;15.82;;;4.50;66.00;;;-0.86;97.46;95840.84;4997614;28;20030;-53
2023/01/26 01:38:43;;;;;;;30.57;16.10;;;4.60;66.00;;;-0.87;97.57;95840.06;4974774;28;20038;-52
2023/01/26 01:41:19;;;;;;;28.83;14.50;;;4.50;65.90;;;-0.83;97.03;95836.06;4976366;28;20281;-51
2023/01/26 01:43:45;;;;;;;30.73;15.88;;;4.50;65.90;;;-0.84;96.96;95834.44;4989355;28;20029;-57
2023/01/26 01:46:30;;;;;;;31.58;15.07;;;4.50;65.90;;;-0.89;97.78;95838.63;4990412;28;20030;-53
2023/01/26 01:49:15;;;;;;;28.23;16.17;;;4.50;65.90;;;-0.88;97.51;95832.38;5006097;28;20361;-50
2023/01/26 01:51:58;;;;;;;28.85;15.30;;;4.40;65.90;;;-0.90;97.56;95832.59;5006521;28;20522;-53
2023/01/26 01:54:47;;;;;;;33.55;16.27;;;4.40;65.90;;;-0.95;97.48;95830.50;4989637;28;20026;-52
2023/01/26 01:57:28;;;;;;;28.70;15.30;;;4.40;65.90;;;-0.95;97.35;95822.66;4978449;28;20078;-54
2023/01/26 02:00:23;;;;;;;26.27;14.88;;;4.30;65.90;;;-1.12;97.28;95833.56;4989973;28;20542;-50
2023/01/26 02:03:20;;;;;;;25.40;14.52;;;4.30;66.00;;;-1.06;97.48;95828.41;4988230;28;20050;-52
2023/01/26 02:06:05;;;;;;;31.02;16.17;;;4.30;66.00;;;-1.04;97.57;95830.81;4990852;28;20053;-47
2023/01/26 02:08:54;;;;;;;28.85;15.23;;;4.30;66.10;;;-1.03;97.54;95822.00;4989673;28;20089;-49
2023/01/26 02:11:43;;;;;;;28.23;13.93;;;4.20;66.10;;;-1.10;97.56;95823.72;4966512;28;20076;-52
2023/01/26 02:14:15;;;;;;;25.75;14.10;;;4.20;66.10;;;-1.05;97.52;95821.38;4982817;28;20114;-49
2023/01/26 02:16:41;;;;;;;27.75;14.80;;;4.20;66.90;;;-1.00;97.44;95821.63;4979594;28;20026;-52
2023/01/26 02:19:50;;;;;;;31.25;15.80;;;4.20;66.10;;;-1.00;97.53;95809.34;4970629;28;20037;-52
2023/01/26 02:23:04;;;;;;;29.88;15.18;;;4.20;66.20;;;-1.04;97.50;95815.94;4984778;28;20033;-49
2023/01/26 02:25:50;;;;;;;28.95;15.57;;;4.30;66.20;;;-1.00;98.16;95811.16;4973981;28;20041;-49
2023/01/26 02:28:21;;;;;;;27.85;14.85;;;4.20;66.30;;;-0.99;97.74;95802.31;4979978;28;20508;-51
2023/01/26 02:30:49;;;;;;;28.08;14.85;;;4.20;66.30;;;-0.98;97.62;95803.94;4970369;28;20034;-51
2023/01/26 02:33:27;;;;;;;25.60;14.02;;;4.30;66.30;;;-0.99;97.36;95797.09;4987934;28;20037;-49
2023/01/26 02:36:15;;;;;;;24.73;13.30;;;4.30;66.20;;;-1.03;97.62;95801.88;4986625;28;20046;-51
2023/01/26 02:39:21;;;;;;;23.45;14.10;;;4.30;66.20;;;-1.02;97.16;95800.06;4981470;28;20079;-49
2023/01/26 02:44:40;;;;;;;24.85;14.60;;;4.30;66.00;;;-1.08;96.60;95775.47;4990102;28;20053;-52
2023/01/26 02:47:17;;;;;;;27.98;15.68;;;4.30;66.00;;;-1.02;96.64;95784.38;4971833;28;20034;-51
2023/01/26 02:49:47;;;;;;;28.23;15.25;;;4.30;66.00;;;-1.03;96.32;95782.78;4988914;28;20108;-51
2023/01/26 02:52:24;;;;;;;28.58;15.32;;;4.20;65.90;;;-1.06;96.50;95783.16;4982706;28;20124;-52
2023/01/26 02:57:36;;;;;;;27.88;15.02;;;4.20;65.90;;;-1.05;96.45;95769.88;4989093;28;20036;-49
2023/01/26 03:00:21;;;;;;;27.65;14.77;;;4.20;65.90;;;-1.08;96.04;95772.88;4988152;28;20049;-51
2023/01/26 03:02:55;;;;;;;25.42;14.23;;;4.20;65.90;;;-1.08;95.78;95770.25;4979216;28;20037;-53
2023/01/26 03:05:21;;;;;;;22.83;12.98;;;4.20;65.90;;;-1.09;95.76;95771.25;4987677;28;20022;-52
2023/01/26 03:07:47;;;;;;;27.13;14.20;;;4.20;65.90;;;-1.12;96.01;95765.59;4988463;28;20443;-52
2023/01/26 03:10:17;;;;;;;25.55;13.30;;;4.20;66.00;;;-1.13;95.96;95766.56;4988559;28;20041;-54
2023/01/26 03:12:45;;;;;;;25.08;13.85;;;4.10;65.90;;;-1.09;95.99;95763.41;4988393;28;20026;-49
